Time,TemperatureF,DewpointF,PressureIn,WindDirection,WindDirectionDegrees,WindSpeedMPH,WindSpeedGustMPH,Humidity,HourlyPrecipIn,Conditions,Clouds,dailyrainin,SoftwareType,DateUTC
2013-01-26 00:03:00,1.0,-2.2,30.57,NW,321,2.0,3.0,86,0.00,,---,0.00,VWS V13.01,2013-01-26 06:03:00,
2013-01-26 00:09:00,0.9,-2.3,30.57,NW,325,3.0,5.0,86,0.00,,---,0.00,VWS V13.01,2013-01-26 06:09:00,
2013-01-26 00:14:00,0.9,-2.3,30.57,NW,325,2.0,5.0,86,0.00,,---,0.00,VWS V13.01,2013-01-26 06:14:00,
2013-01-26 00:19:00,0.9,-2.3,30.57,NNW,328,2.0,4.0,86,0.00,,---,0.00,VWS V13.01,2013-01-26 06:19:00,
2013-01-26 00:24:00,0.9,-2.3,30.57,NNW,338,4.0,6.0,86,0.00,,---,0.00,VWS V13.01,2013-01-26 06:24:00,
2013-01-26 00:30:00,1.0,-2.2,30.57,NNW,338,2.0,6.0,86,0.00,,---,0.00,VWS V13.01,2013-01-26 06:30:00,
2013-01-26 00:35:00,0.9,-2.3,30.59,NNW,332,1.0,4.0,86,0.00,,---,0.00,VWS V13.01,2013-01-26 06:35:00,
2013-01-26 00:40:00,0.8,-2.4,30.59,NNW,333,1.0,6.0,86,0.00,,---,0.00,VWS V13.01,2013-01-26 06:40:00,
2013-01-26 00:45:00,0.8,-2.4,30.59,NW,326,4.0,6.0,86,0.00,,---,0.00,VWS V13.01,2013-01-26 06:45:00,
2013-01-26 00:51:00,0.7,-2.5,30.59,NNW,336,3.0,7.0,86,0.00,,---,0.00,VWS V13.01,2013-01-26 06:51:00,
2013-01-26 00:56:00,0.6,-2.6,30.59,NNW,338,3.0,7.0,86,0.00,,---,0.00,VWS V13.01,2013-01-26 06:56:00,
2013-01-26 01:01:00,0.6,-2.6,30.60,NNW,336,3.0,7.0,86,0.00,,---,0.00,VWS V13.01,2013-01-26 07:01:00,
2013-01-26 01:06:00,0.6,-2.6,30.60,NNW,336,3.0,4.0,86,0.00,,---,0.00,VWS V13.01,2013-01-26 07:06:00,
2013-01-26 01:11:00,0.5,-2.7,30.60,NNW,334,3.0,4.0,86,0.00,,---,0.00,VWS V13.01,2013-01-26 07:11:00,
2013-01-26 01:17:00,0.4,-2.8,30.61,NNW,336,1.0,5.0,86,0.00,,---,0.00,VWS V13.01,2013-01-26 07:17:00,
2013-01-26 01:22:00,0.3,-2.9,30.61,NNW,334,2.0,5.0,86,0.00,,---,0.00,VWS V13.01,2013-01-26 07:22:00,
2013-01-26 01:27:00,0.1,-3.1,30.61,NNW,336,0.0,5.0,86,0.00,,---,0.00,VWS V13.01,2013-01-26 07:27:00,
2013-01-26 01:32:00,0.1,-3.2,30.61,NNW,336,0.0,1.0,86,0.00,,---,0.00,VWS V13.01,2013-01-26 07:32:00,
2013-01-26 01:37:00,-0.1,-3.3,30.61,NNW,338,2.0,4.0,86,0.00,,---,0.00,VWS V13.01,2013-01-26 07:37:00,
2013-01-26 01:43:00,-0.2,-3.4,30.61,NNW,338,5.0,5.0,86,0.00,,---,0.00,VWS V13.01,2013-01-26 07:43:00,
2013-01-26 01:48:00,-0.3,-3.5,30.61,NNW,339,0.0,2.0,86,0.00,,---,0.00,VWS V13.01,2013-01-26 07:48:00,
2013-01-26 01:53:00,-0.4,-3.8,30.61,NNW,339,0.0,2.0,85,0.00,,---,0.00,VWS V13.01,2013-01-26 07:53:00,
2013-01-26 01:58:00,-0.6,-4.0,30.61,NNW,339,0.0,2.0,85,0.00,,---,0.00,VWS V13.01,2013-01-26 07:58:00,
2013-01-26 02:04:00,-0.8,-4.2,30.64,NNW,339,0.0,0.0,85,0.00,,---,0.00,VWS V13.01,2013-01-26 08:04:00,
2013-01-26 02:09:00,-1.0,-4.4,30.64,NNW,339,0.0,0.0,85,0.00,,---,0.00,VWS V13.01,2013-01-26 08:09:00,
2013-01-26 02:14:00,-1.2,-4.6,30.64,NNW,339,0.0,0.0,85,0.00,,---,0.00,VWS V13.01,2013-01-26 08:14:00,
2013-01-26 02:19:00,-1.4,-4.8,30.65,NNW,339,0.0,0.0,85,0.00,,---,0.00,VWS V13.01,2013-01-26 08:19:00,
2013-01-26 02:25:00,-1.7,-5.1,30.65,NNW,339,0.0,0.0,85,0.00,,---,0.00,VWS V13.01,2013-01-26 08:25:00,
2013-01-26 02:30:00,-1.9,-5.3,30.65,NNW,339,0.0,1.0,85,0.00,,---,0.00,VWS V13.01,2013-01-26 08:30:00,
2013-01-26 02:35:00,-2.1,-5.5,30.65,NNW,339,0.0,0.0,85,0.00,,---,0.00,VWS V13.01,2013-01-26 08:35:00,
2013-01-26 02:40:00,-2.2,-5.6,30.65,NNW,339,0.0,0.0,85,0.00,,---,0.00,VWS V13.01,2013-01-26 08:40:00,
2013-01-26 02:46:00,-2.6,-6.2,30.67,NNW,339,0.0,0.0,84,0.00,,---,0.00,VWS V13.01,2013-01-26 08:46:00,
2013-01-26 02:51:00,-2.9,-6.5,30.67,NNW,339,0.0,0.0,84,0.00,,---,0.00,VWS V13.01,2013-01-26 08:51:00,
2013-01-26 02:56:00,-3.3,-6.9,30.67,NNW,339,0.0,0.0,84,0.00,,---,0.00,VWS V13.01,2013-01-26 08:56:00,
2013-01-26 03:01:00,-4.0,-7.8,30.67,NNW,339,0.0,0.0,83,0.00,,---,0.00,VWS V13.01,2013-01-26 09:01:00,
2013-01-26 03:07:00,-4.8,-8.9,30.67,NNW,339,0.0,0.0,82,0.00,,---,0.00,VWS V13.01,2013-01-26 09:07:00,
2013-01-26 03:12:00,-5.4,-9.2,30.67,NNW,339,0.0,0.0,83,0.00,,---,0.00,VWS V13.01,2013-01-26 09:12:00,
2013-01-26 03:17:00,-5.6,-9.4,30.70,NNW,339,0.0,0.0,83,0.00,,---,0.00,VWS V13.01,2013-01-26 09:17:00,
2013-01-26 03:22:00,-6.1,-9.9,30.70,NNW,339,0.0,0.0,83,0.00,,---,0.00,VWS V13.01,2013-01-26 09:22:00,
2013-01-26 03:28:00,-6.5,-10.6,30.70,NNW,339,0.0,0.0,82,0.00,,---,0.00,VWS V13.01,2013-01-26 09:28:00,
2013-01-26 03:33:00,-7.0,-11.0,30.70,NNW,339,0.0,0.0,82,0.00,,---,0.00,VWS V13.01,2013-01-26 09:33:00,
2013-01-26 03:38:00,-7.4,-11.4,30.70,NNW,339,0.0,0.0,82,0.00,,---,0.00,VWS V13.01,2013-01-26 09:38:00,
2013-01-26 03:43:00,-7.7,-11.7,30.70,NNW,339,0.0,0.0,82,0.00,,---,0.00,VWS V13.01,2013-01-26 09:43:00,
2013-01-26 03:49:00,-8.0,-12.0,30.70,NNW,339,0.0,0.0,82,0.00,,---,0.00,VWS V13.01,2013-01-26 09:49:00,
2013-01-26 03:54:00,-8.5,-12.8,30.70,NNW,339,0.0,0.0,81,0.00,,---,0.00,VWS V13.01,2013-01-26 09:54:00,
2013-01-26 03:59:00,-8.8,-12.8,30.70,NNW,339,0.0,0.0,82,0.00,,---,0.00,VWS V13.01,2013-01-26 09:59:00,
2013-01-26 04:04:00,-9.1,-13.3,30.72,NNW,339,0.0,0.0,81,0.00,,---,0.00,VWS V13.01,2013-01-26 10:04:00,
2013-01-26 04:09:00,-9.6,-13.8,30.72,NNW,339,0.0,0.0,81,0.00,,---,0.00,VWS V13.01,2013-01-26 10:09:00,
2013-01-26 04:14:00,-9.9,-14.1,30.72,NNW,339,0.0,0.0,81,0.00,,---,0.00,VWS V13.01,2013-01-26 10:14:00,
2013-01-26 04:20:00,-10.3,-14.5,30.73,NNW,339,0.0,0.0,81,0.00,,---,0.00,VWS V13.01,2013-01-26 10:20:00,
2013-01-26 04:25:00,-10.7,-14.9,30.73,NNW,339,0.0,0.0,81,0.00,,---,0.00,VWS V13.01,2013-01-26 10:25:00,
2013-01-26 04:30:00,-11.0,-15.2,30.73,NNW,339,0.0,0.0,81,0.00,,---,0.00,VWS V13.01,2013-01-26 10:30:00,
2013-01-26 04:36:00,-11.3,-15.7,30.73,NNW,339,0.0,0.0,80,0.00,,---,0.00,VWS V13.01,2013-01-26 10:36:00,
2013-01-26 04:41:00,-11.7,-16.1,30.73,NNW,339,0.0,0.0,80,0.00,,---,0.00,VWS V13.01,2013-01-26 10:41:00,
2013-01-26 04:46:00,-12.0,-16.4,30.75,NNW,339,0.0,0.0,80,0.00,,---,0.00,VWS V13.01,2013-01-26 10:46:00,
2013-01-26 04:51:00,-12.3,-16.7,30.75,NNW,339,0.0,0.0,80,0.00,,---,0.00,VWS V13.01,2013-01-26 10:51:00,
2013-01-26 04:57:00,-12.7,-17.1,30.75,NNW,339,0.0,0.0,80,0.00,,---,0.00,VWS V13.01,2013-01-26 10:57:00,
2013-01-26 05:02:00,-13.1,-17.7,30.75,NNW,339,0.0,0.0,79,0.00,,---,0.00,VWS V13.01,2013-01-26 11:02:00,
2013-01-26 05:07:00,-13.4,-17.8,30.75,NNW,339,0.0,0.0,80,0.00,,---,0.00,VWS V13.01,2013-01-26 11:07:00,
2013-01-26 05:12:00,-13.6,-18.0,30.75,NNW,339,0.0,0.0,80,0.00,,---,0.00,VWS V13.01,2013-01-26 11:12:00,
2013-01-26 05:17:00,-13.8,-18.2,30.77,NNW,339,0.0,0.0,80,0.00,,---,0.00,VWS V13.01,2013-01-26 11:17:00,
2013-01-26 05:22:00,-14.0,-18.4,30.77,NNW,339,0.0,0.0,80,0.00,,---,0.00,VWS V13.01,2013-01-26 11:22:00,
2013-01-26 05:28:00,-14.0,-18.4,30.77,NNW,339,0.0,0.0,80,0.00,,---,0.00,VWS V13.01,2013-01-26 11:28:00,
2013-01-26 05:33:00,-14.3,-18.7,30.77,NNW,339,0.0,0.0,80,0.00,,---,0.00,VWS V13.01,2013-01-26 11:33:00,
2013-01-26 05:38:00,-14.3,-18.7,30.77,NNW,339,0.0,0.0,80,0.00,,---,0.00,VWS V13.01,2013-01-26 11:38:00,
2013-01-26 05:43:00,-14.4,-18.8,30.77,NNW,339,0.0,0.0,80,0.00,,---,0.00,VWS V13.01,2013-01-26 11:43:00,
2013-01-26 05:49:00,-14.5,-18.9,30.79,NNW,339,0.0,0.0,80,0.00,,---,0.00,VWS V13.01,2013-01-26 11:49:00,
2013-01-26 05:54:00,-14.5,-18.9,30.79,NNW,339,0.0,0.0,80,0.00,,---,0.00,VWS V13.01,2013-01-26 11:54:00,
2013-01-26 05:59:00,-14.6,-19.0,30.79,NNW,339,0.0,0.0,80,0.00,,---,0.00,VWS V13.01,2013-01-26 11:59:00,
2013-01-26 06:04:00,-14.7,-19.1,30.80,NNW,339,0.0,0.0,80,0.00,,---,0.00,VWS V13.01,2013-01-26 12:04:00,
2013-01-26 06:09:00,-14.8,-19.2,30.80,NNW,339,0.0,0.0,80,0.00,,---,0.00,VWS V13.01,2013-01-26 12:09:00,
2013-01-26 06:14:00,-15.0,-19.4,30.80,NNW,339,0.0,0.0,80,0.00,,---,0.00,VWS V13.01,2013-01-26 12:14:00,
2013-01-26 06:20:00,-15.1,-19.5,30.80,NNW,339,0.0,0.0,80,0.00,,---,0.00,VWS V13.01,2013-01-26 12:20:00,
2013-01-26 06:25:00,-15.1,-19.5,30.80,NNW,339,0.0,0.0,80,0.00,,---,0.00,VWS V13.01,2013-01-26 12:25:00,
2013-01-26 06:30:00,-15.2,-19.5,30.80,NNW,339,0.0,0.0,80,0.00,,---,0.00,VWS V13.01,2013-01-26 12:30:00,
2013-01-26 06:36:00,-15.3,-19.6,30.80,NNW,339,0.0,0.0,80,0.00,,---,0.00,VWS V13.01,2013-01-26 12:36:00,
2013-01-26 06:41:00,-15.3,-19.6,30.80,NNW,339,0.0,0.0,80,0.00,,---,0.00,VWS V13.01,2013-01-26 12:41:00,
2013-01-26 06:46:00,-15.2,-19.5,30.81,NNW,339,0.0,0.0,80,0.00,,---,0.00,VWS V13.01,2013-01-26 12:46:00,
2013-01-26 06:51:00,-15.3,-19.6,30.81,NNW,339,0.0,0.0,80,0.00,,---,0.00,VWS V13.01,2013-01-26 12:51:00,
2013-01-26 06:56:00,-15.3,-19.6,30.81,NNW,339,0.0,0.0,80,0.00,,---,0.00,VWS V13.01,2013-01-26 12:56:00,
2013-01-26 07:01:00,-15.4,-20.0,30.80,NNW,339,0.0,0.0,79,0.00,,---,0.00,VWS V13.01,2013-01-26 13:01:00,
2013-01-26 07:06:00,-15.6,-19.9,30.80,NNW,339,0.0,0.0,80,0.00,,---,0.00,VWS V13.01,2013-01-26 13:06:00,
2013-01-26 07:11:00,-15.6,-19.9,30.80,NNW,339,0.0,0.0,80,0.00,,---,0.00,VWS V13.01,2013-01-26 13:11:00,
2013-01-26 07:16:00,-15.7,-20.0,30.82,NNW,339,0.0,0.0,80,0.00,,---,0.00,VWS V13.01,2013-01-26 13:16:00,
2013-01-26 07:22:00,-15.8,-20.1,30.82,NNW,339,1.0,1.0,80,0.00,,---,0.00,VWS V13.01,2013-01-26 13:22:00,
2013-01-26 07:27:00,-15.8,-20.1,30.82,NNW,339,0.0,1.0,80,0.00,,---,0.00,VWS V13.01,2013-01-26 13:27:00,
2013-01-26 07:32:00,-15.9,-20.2,30.84,NNW,339,0.0,0.0,80,0.00,,---,0.00,VWS V13.01,2013-01-26 13:32:00,
2013-01-26 07:37:00,-16.0,-20.6,30.84,NNW,339,0.0,0.0,79,0.00,,---,0.00,VWS V13.01,2013-01-26 13:37:00,
2013-01-26 07:43:00,-16.0,-20.3,30.84,NNW,339,0.0,0.0,80,0.00,,---,0.00,VWS V13.01,2013-01-26 13:43:00,
2013-01-26 07:48:00,-16.0,-20.3,30.84,NNW,339,0.0,0.0,80,0.00,,---,0.00,VWS V13.01,2013-01-26 13:48:00,
2013-01-26 07:53:00,-15.9,-20.2,30.84,NNW,339,0.0,0.0,80,0.00,,---,0.00,VWS V13.01,2013-01-26 13:53:00,
2013-01-26 07:58:00,-15.8,-20.1,30.84,NNW,339,0.0,0.0,80,0.00,,---,0.00,VWS V13.01,2013-01-26 13:58:00,
2013-01-26 08:04:00,-15.8,-20.4,30.84,NNW,339,0.0,0.0,79,0.00,,---,0.00,VWS V13.01,2013-01-26 14:04:00,
2013-01-26 08:09:00,-15.7,-20.0,30.84,NNW,339,0.0,0.0,80,0.00,,---,0.00,VWS V13.01,2013-01-26 14:09:00,
2013-01-26 08:14:00,-15.3,-19.6,30.84,NNW,339,0.0,0.0,80,0.00,,---,0.00,VWS V13.01,2013-01-26 14:14:00,
2013-01-26 08:19:00,-14.7,-18.8,30.85,NNW,339,0.0,2.0,81,0.00,,---,0.00,VWS V13.01,2013-01-26 14:19:00,
2013-01-26 08:25:00,-14.1,-18.2,30.85,NNW,339,0.0,2.0,81,0.00,,---,0.00,VWS V13.01,2013-01-26 14:25:00,
2013-01-26 08:30:00,-13.5,-17.6,30.85,NNW,339,0.0,2.0,81,0.00,,---,0.00,VWS V13.01,2013-01-26 14:30:00,
2013-01-26 08:35:00,-13.1,-17.2,30.84,NNW,339,0.0,0.0,81,0.00,,---,0.00,VWS V13.01,2013-01-26 14:35:00,
2013-01-26 08:40:00,-12.8,-17.0,30.84,NNW,339,0.0,0.0,81,0.00,,---,0.00,VWS V13.01,2013-01-26 14:40:00,
2013-01-26 08:46:00,-12.5,-16.7,30.84,NNW,339,0.0,0.0,81,0.00,,---,0.00,VWS V13.01,2013-01-26 14:46:00,
2013-01-26 08:51:00,-12.0,-16.2,30.84,NNW,339,0.0,0.0,81,0.00,,---,0.00,VWS V13.01,2013-01-26 14:51:00,
2013-01-26 08:56:00,-11.6,-15.8,30.84,NNW,339,0.0,1.0,81,0.00,,---,0.00,VWS V13.01,2013-01-26 14:56:00,
2013-01-26 09:01:00,-10.6,-14.3,30.82,NNW,339,0.0,1.0,83,0.00,,---,0.00,VWS V13.01,2013-01-26 15:01:00,
2013-01-26 09:07:00,-9.2,-12.7,30.82,NNW,339,0.0,1.0,84,0.00,,---,0.00,VWS V13.01,2013-01-26 15:07:00,
2013-01-26 09:12:00,-7.7,-11.2,30.82,NNW,339,0.0,1.0,84,0.00,,---,0.00,VWS V13.01,2013-01-26 15:12:00,
2013-01-26 09:17:00,-5.7,-9.0,30.79,NNW,339,0.0,0.0,85,0.00,,---,0.00,VWS V13.01,2013-01-26 15:17:00,
2013-01-26 09:22:00,-3.9,-7.3,30.79,NNW,339,0.0,0.0,85,0.00,,---,0.00,VWS V13.01,2013-01-26 15:22:00,
2013-01-26 09:28:00,-2.4,-5.6,30.79,NNW,339,0.0,2.0,86,0.00,,---,0.00,VWS V13.01,2013-01-26 15:28:00,
2013-01-26 09:33:00,-1.0,-4.2,30.76,NNW,339,0.0,0.0,86,0.00,,---,0.00,VWS V13.01,2013-01-26 15:33:00,
2013-01-26 09:38:00,0.2,-3.0,30.76,NNW,339,0.0,0.0,86,0.00,,---,0.00,VWS V13.01,2013-01-26 15:38:00,
2013-01-26 09:43:00,1.8,-1.2,30.76,NNW,339,0.0,0.0,87,0.00,,---,0.00,VWS V13.01,2013-01-26 15:43:00,
2013-01-26 09:49:00,3.5,0.5,30.72,NNW,339,1.0,1.0,87,0.00,,---,0.00,VWS V13.01,2013-01-26 15:49:00,
2013-01-26 09:54:00,4.7,1.9,30.72,NNW,339,0.0,2.0,88,0.00,,---,0.00,VWS V13.01,2013-01-26 15:54:00,
2013-01-26 09:59:00,5.9,3.1,30.72,NNW,339,0.0,2.0,88,0.00,,---,0.00,VWS V13.01,2013-01-26 15:59:00,
2013-01-26 10:04:00,7.2,4.4,30.69,NNW,339,0.0,0.0,88,0.00,,---,0.00,VWS V13.01,2013-01-26 16:04:00,
2013-01-26 10:10:00,8.1,5.3,30.69,NNW,336,1.0,3.0,88,0.00,,---,0.00,VWS V13.01,2013-01-26 16:10:00,
2013-01-26 10:15:00,8.6,5.8,30.69,SE,140,1.0,5.0,88,0.00,,---,0.00,VWS V13.01,2013-01-26 16:15:00,
2013-01-26 10:20:00,8.7,5.9,30.68,SE,144,3.0,4.0,88,0.00,,---,0.00,VWS V13.01,2013-01-26 16:20:00,
2013-01-26 10:25:00,9.1,6.3,30.68,SE,144,0.0,4.0,88,0.00,,---,0.00,VWS V13.01,2013-01-26 16:25:00,
2013-01-26 10:31:00,9.4,6.6,30.69,South,190,1.0,4.0,88,0.00,,---,0.00,VWS V13.01,2013-01-26 16:31:00,
2013-01-26 10:36:00,9.8,7.0,30.69,South,189,1.0,5.0,88,0.00,,---,0.00,VWS V13.01,2013-01-26 16:36:00,
2013-01-26 10:41:00,9.9,7.1,30.69,South,185,3.0,5.0,88,0.00,,---,0.00,VWS V13.01,2013-01-26 16:41:00,
2013-01-26 10:47:00,10.3,7.5,30.69,South,182,1.0,5.0,88,0.00,,---,0.00,VWS V13.01,2013-01-26 16:47:00,
2013-01-26 10:52:00,10.6,7.5,30.69,SSE,158,2.0,6.0,87,0.00,,---,0.00,VWS V13.01,2013-01-26 16:52:00,
2013-01-26 10:57:00,11.0,7.9,30.69,SSE,159,6.0,6.0,87,0.00,,---,0.00,VWS V13.01,2013-01-26 16:57:00,
2013-01-26 11:02:00,11.2,8.1,30.67,South,179,3.0,5.0,87,0.00,,---,0.00,VWS V13.01,2013-01-26 17:02:00,
2013-01-26 11:07:00,11.4,8.3,30.67,SSW,213,2.0,6.0,87,0.00,,---,0.00,VWS V13.01,2013-01-26 17:07:00,
2013-01-26 11:13:00,11.4,8.0,30.67,SSE,157,6.0,11.0,86,0.00,,---,0.00,VWS V13.01,2013-01-26 17:13:00,
2013-01-26 11:18:00,11.2,7.8,30.65,South,172,3.0,6.0,86,0.00,,---,0.00,VWS V13.01,2013-01-26 17:18:00,
2013-01-26 11:23:00,11.2,8.1,30.65,South,169,2.0,11.0,87,0.00,,---,0.00,VWS V13.01,2013-01-26 17:23:00,
2013-01-26 11:28:00,11.1,8.0,30.65,SSW,192,2.0,13.0,87,0.00,,---,0.00,VWS V13.01,2013-01-26 17:28:00,
2013-01-26 11:34:00,11.2,8.1,30.65,South,172,3.0,17.0,87,0.00,,---,0.00,VWS V13.01,2013-01-26 17:34:00,
2013-01-26 11:39:00,11.2,8.1,30.65,SSE,162,0.0,17.0,87,0.00,,---,0.00,VWS V13.01,2013-01-26 17:39:00,
2013-01-26 11:44:00,11.4,8.3,30.65,SE,130,5.0,17.0,87,0.00,,---,0.00,VWS V13.01,2013-01-26 17:44:00,
2013-01-26 11:49:00,11.4,8.3,30.64,SSE,148,0.0,5.0,87,0.00,,---,0.00,VWS V13.01,2013-01-26 17:49:00,
2013-01-26 11:55:00,11.6,8.5,30.64,SSE,159,4.0,10.0,87,0.00,,---,0.00,VWS V13.01,2013-01-26 17:55:00,
2013-01-26 12:00:00,11.5,8.4,30.64,SSE,148,1.0,10.0,87,0.00,,---,0.00,VWS V13.01,2013-01-26 18:00:00,
2013-01-26 12:05:00,11.7,8.6,30.63,SSW,201,2.0,10.0,87,0.00,,---,0.00,VWS V13.01,2013-01-26 18:05:00,
2013-01-26 12:11:00,11.8,8.7,30.63,South,182,4.0,10.0,87,0.00,,---,0.00,VWS V13.01,2013-01-26 18:11:00,
2013-01-26 12:16:00,11.9,8.8,30.64,SSW,201,3.0,10.0,87,0.00,,---,0.00,VWS V13.01,2013-01-26 18:16:00,
2013-01-26 12:21:00,12.1,9.0,30.64,SE,146,2.0,10.0,87,0.00,,---,0.00,VWS V13.01,2013-01-26 18:21:00,
2013-01-26 12:26:00,12.4,9.3,30.64,SSE,163,1.0,10.0,87,0.00,,---,0.00,VWS V13.01,2013-01-26 18:26:00,
2013-01-26 12:31:00,12.5,9.1,30.61,SSW,194,1.0,10.0,86,0.00,,---,0.00,VWS V13.01,2013-01-26 18:31:00,
2013-01-26 12:37:00,12.6,9.2,30.61,SSW,205,3.0,10.0,86,0.00,,---,0.00,VWS V13.01,2013-01-26 18:37:00,
2013-01-26 12:42:00,12.7,9.3,30.61,SSE,161,3.0,10.0,86,0.00,,---,0.00,VWS V13.01,2013-01-26 18:42:00,
2013-01-26 12:47:00,12.6,9.2,30.61,SSE,158,5.0,5.0,86,0.00,,---,0.00,VWS V13.01,2013-01-26 18:47:00,
2013-01-26 12:52:00,12.6,9.2,30.61,SSW,194,2.0,9.0,86,0.00,,---,0.00,VWS V13.01,2013-01-26 18:52:00,
2013-01-26 12:58:00,12.6,9.2,30.61,South,180,1.0,9.0,86,0.00,,---,0.00,VWS V13.01,2013-01-26 18:58:00,
2013-01-26 13:03:00,12.7,9.3,30.60,South,184,1.0,5.0,86,0.00,,---,0.00,VWS V13.01,2013-01-26 19:03:00,
2013-01-26 13:08:00,12.6,9.2,30.60,South,186,3.0,9.0,86,0.00,,---,0.00,VWS V13.01,2013-01-26 19:08:00,
2013-01-26 13:13:00,12.6,9.2,30.60,SSE,165,0.0,9.0,86,0.00,,---,0.00,VWS V13.01,2013-01-26 19:13:00,
2013-01-26 13:19:00,12.5,9.1,30.61,South,173,2.0,6.0,86,0.00,,---,0.00,VWS V13.01,2013-01-26 19:19:00,
2013-01-26 13:24:00,12.2,8.6,30.61,SSE,150,9.0,10.0,85,0.00,,---,0.00,VWS V13.01,2013-01-26 19:24:00,
2013-01-26 13:29:00,12.0,8.6,30.61,SSE,151,6.0,12.0,86,0.00,,---,0.00,VWS V13.01,2013-01-26 19:29:00,
2013-01-26 13:34:00,12.0,8.9,30.63,SSE,163,2.0,6.0,87,0.00,,---,0.00,VWS V13.01,2013-01-26 19:34:00,
2013-01-26 13:40:00,12.2,9.1,30.63,SE,134,3.0,10.0,87,0.00,,---,0.00,VWS V13.01,2013-01-26 19:40:00,
2013-01-26 13:45:00,12.2,8.8,30.63,SSE,168,1.0,10.0,86,0.00,,---,0.00,VWS V13.01,2013-01-26 19:45:00,
2013-01-26 13:50:00,12.3,9.2,30.62,SSE,165,0.0,4.0,87,0.00,,---,0.00,VWS V13.01,2013-01-26 19:50:00,
2013-01-26 13:56:00,12.5,9.4,30.62,South,176,3.0,7.0,87,0.00,,---,0.00,VWS V13.01,2013-01-26 19:56:00,
2013-01-26 14:01:00,12.6,9.5,30.61,SSE,156,2.0,9.0,87,0.00,,---,0.00,VWS V13.01,2013-01-26 20:01:00,
2013-01-26 14:06:00,12.5,9.1,30.61,SSE,152,3.0,10.0,86,0.00,,---,0.00,VWS V13.01,2013-01-26 20:06:00,
2013-01-26 14:11:00,12.5,9.4,30.61,SSW,204,5.0,10.0,87,0.00,,---,0.00,VWS V13.01,2013-01-26 20:11:00,
2013-01-26 14:17:00,12.7,9.6,30.63,South,188,2.0,10.0,87,0.00,,---,0.00,VWS V13.01,2013-01-26 20:17:00,
2013-01-26 14:22:00,12.8,9.7,30.63,South,178,3.0,12.0,87,0.00,,---,0.00,VWS V13.01,2013-01-26 20:22:00,
2013-01-26 14:27:00,12.9,9.8,30.63,SSE,165,1.0,12.0,87,0.00,,---,0.00,VWS V13.01,2013-01-26 20:27:00,
2013-01-26 14:32:00,13.0,9.9,30.62,South,174,2.0,12.0,87,0.00,,---,0.00,VWS V13.01,2013-01-26 20:32:00,
2013-01-26 14:37:00,13.2,10.1,30.62,South,174,2.0,7.0,87,0.00,,---,0.00,VWS V13.01,2013-01-26 20:37:00,
2013-01-26 14:42:00,13.3,10.2,30.62,SSE,152,2.0,9.0,87,0.00,,---,0.00,VWS V13.01,2013-01-26 20:42:00,
2013-01-26 14:47:00,13.3,10.2,30.62,SE,130,10.0,10.0,87,0.00,,---,0.00,VWS V13.01,2013-01-26 20:47:00,
2013-01-26 14:53:00,13.3,10.2,30.62,SSE,154,9.0,14.0,87,0.00,,---,0.00,VWS V13.01,2013-01-26 20:53:00,
2013-01-26 14:58:00,13.2,10.1,30.62,ESE,114,6.0,16.0,87,0.00,,---,0.00,VWS V13.01,2013-01-26 20:58:00,
2013-01-26 15:03:00,13.3,10.4,30.61,SSE,159,6.0,14.0,88,0.00,,---,0.00,VWS V13.01,2013-01-26 21:03:00,
2013-01-26 15:08:00,13.5,10.6,30.61,South,182,0.0,14.0,88,0.00,,---,0.00,VWS V13.01,2013-01-26 21:08:00,
2013-01-26 15:14:00,13.6,10.7,30.61,SSE,160,1.0,14.0,88,0.00,,---,0.00,VWS V13.01,2013-01-26 21:14:00,
2013-01-26 15:19:00,13.7,10.8,30.65,SSE,152,1.0,4.0,88,0.00,,---,0.00,VWS V13.01,2013-01-26 21:19:00,
2013-01-26 15:24:00,13.8,10.9,30.65,SSW,199,3.0,10.0,88,0.00,,---,0.00,VWS V13.01,2013-01-26 21:24:00,
2013-01-26 15:29:00,13.8,11.2,30.65,South,191,2.0,10.0,89,0.00,,---,0.00,VWS V13.01,2013-01-26 21:29:00,
2013-01-26 15:34:00,13.7,11.1,30.65,South,188,1.0,6.0,89,0.00,,---,0.00,VWS V13.01,2013-01-26 21:34:00,
2013-01-26 15:40:00,13.7,11.1,30.65,SSE,163,7.0,7.0,89,0.00,,---,0.00,VWS V13.01,2013-01-26 21:40:00,
2013-01-26 15:45:00,13.8,11.2,30.65,South,186,4.0,10.0,89,0.00,,---,0.00,VWS V13.01,2013-01-26 21:45:00,
2013-01-26 15:50:00,13.7,11.1,30.64,South,175,1.0,6.0,89,0.00,,---,0.00,VWS V13.01,2013-01-26 21:50:00,
2013-01-26 15:55:00,13.7,11.1,30.64,SSE,162,1.0,8.0,89,0.00,,---,0.00,VWS V13.01,2013-01-26 21:55:00,
2013-01-26 16:01:00,13.7,11.1,30.64,SE,142,0.0,8.0,89,0.00,,---,0.00,VWS V13.01,2013-01-26 22:01:00,
2013-01-26 16:06:00,13.7,11.1,30.64,SSE,167,10.0,11.0,89,0.00,,---,0.00,VWS V13.01,2013-01-26 22:06:00,
2013-01-26 16:11:00,13.6,11.0,30.64,SSW,195,4.0,11.0,89,0.00,,---,0.00,VWS V13.01,2013-01-26 22:11:00,
2013-01-26 16:16:00,13.6,11.0,30.67,South,181,5.0,11.0,89,0.00,,---,0.00,VWS V13.01,2013-01-26 22:16:00,
2013-01-26 16:22:00,13.6,11.0,30.67,SSE,159,2.0,10.0,89,0.00,,---,0.00,VWS V13.01,2013-01-26 22:22:00,
2013-01-26 16:27:00,13.5,10.9,30.67,South,169,2.0,10.0,89,0.00,,---,0.00,VWS V13.01,2013-01-26 22:27:00,
2013-01-26 16:32:00,13.5,10.9,30.66,SSE,158,1.0,2.0,89,0.00,,---,0.00,VWS V13.01,2013-01-26 22:32:00,
2013-01-26 16:37:00,13.5,10.9,30.66,SSE,149,3.0,11.0,89,0.00,,---,0.00,VWS V13.01,2013-01-26 22:37:00,
2013-01-26 16:43:00,13.5,10.9,30.66,SSE,161,4.0,11.0,89,0.00,,---,0.00,VWS V13.01,2013-01-26 22:43:00,
2013-01-26 16:48:00,13.5,10.9,30.65,SSW,205,2.0,4.0,89,0.00,,---,0.00,VWS V13.01,2013-01-26 22:48:00,
2013-01-26 16:53:00,13.5,10.9,30.65,South,172,2.0,7.0,89,0.00,,---,0.00,VWS V13.01,2013-01-26 22:53:00,
2013-01-26 16:58:00,13.5,10.9,30.65,South,173,5.0,7.0,89,0.00,,---,0.00,VWS V13.01,2013-01-26 22:58:00,
2013-01-26 17:04:00,13.5,10.9,30.65,SSW,198,2.0,4.0,89,0.00,,---,0.00,VWS V13.01,2013-01-26 23:04:00,
2013-01-26 17:09:00,13.5,10.9,30.65,South,188,3.0,9.0,89,0.00,,---,0.00,VWS V13.01,2013-01-26 23:09:00,
2013-01-26 17:14:00,13.5,10.9,30.65,SE,145,4.0,9.0,89,0.00,,---,0.00,VWS V13.01,2013-01-26 23:14:00,
2013-01-26 17:20:00,13.6,11.0,30.65,SSE,154,3.0,6.0,89,0.00,,---,0.00,VWS V13.01,2013-01-26 23:20:00,
2013-01-26 17:25:00,13.6,11.0,30.65,SSE,166,3.0,7.0,89,0.00,,---,0.00,VWS V13.01,2013-01-26 23:25:00,
2013-01-26 17:30:00,13.7,11.1,30.65,SE,139,2.0,10.0,89,0.00,,---,0.00,VWS V13.01,2013-01-26 23:30:00,
2013-01-26 17:35:00,13.7,11.1,30.64,SSE,162,1.0,9.0,89,0.00,,---,0.00,VWS V13.01,2013-01-26 23:35:00,
2013-01-26 17:41:00,13.8,11.2,30.64,SE,140,4.0,9.0,89,0.00,,---,0.00,VWS V13.01,2013-01-26 23:41:00,
2013-01-26 17:46:00,13.8,11.2,30.64,SSE,161,3.0,9.0,89,0.00,,---,0.00,VWS V13.01,2013-01-26 23:46:00,
2013-01-26 17:51:00,13.9,11.5,30.64,SSE,159,2.0,5.0,90,0.00,,---,0.00,VWS V13.01,2013-01-26 23:51:00,
2013-01-26 17:56:00,13.9,11.5,30.64,SSE,150,3.0,9.0,90,0.00,,---,0.00,VWS V13.01,2013-01-26 23:56:00,
2013-01-26 18:02:00,14.0,11.6,30.63,SSE,148,1.0,9.0,90,0.00,,---,0.00,VWS V13.01,2013-01-27 00:02:00,
2013-01-26 18:07:00,14.0,11.6,30.63,SSE,155,4.0,7.0,90,0.00,,---,0.00,VWS V13.01,2013-01-27 00:07:00,
2013-01-26 18:12:00,14.1,11.7,30.63,SSE,163,2.0,11.0,90,0.00,,---,0.00,VWS V13.01,2013-01-27 00:12:00,
2013-01-26 18:17:00,14.2,11.8,30.63,SE,146,2.0,5.0,90,0.00,,---,0.00,VWS V13.01,2013-01-27 00:17:00,
2013-01-26 18:23:00,14.3,11.9,30.63,South,180,6.0,9.0,90,0.00,,---,0.00,VWS V13.01,2013-01-27 00:23:00,
2013-01-26 18:28:00,14.3,11.9,30.63,South,174,3.0,9.0,90,0.00,,---,0.00,VWS V13.01,2013-01-27 00:28:00,
2013-01-26 18:33:00,14.4,12.0,30.63,SE,142,1.0,3.0,90,0.00,,---,0.00,VWS V13.01,2013-01-27 00:33:00,
2013-01-26 18:38:00,14.5,12.4,30.63,SSE,152,4.0,13.0,91,0.00,,---,0.00,VWS V13.01,2013-01-27 00:38:00,
2013-01-26 18:43:00,14.6,12.5,30.63,SSE,165,10.0,13.0,91,0.00,,---,0.00,VWS V13.01,2013-01-27 00:43:00,
2013-01-26 18:49:00,14.6,12.5,30.63,SSE,148,2.0,7.0,91,0.00,,---,0.00,VWS V13.01,2013-01-27 00:49:00,
2013-01-26 18:54:00,14.7,12.6,30.63,SSW,194,3.0,12.0,91,0.00,,---,0.00,VWS V13.01,2013-01-27 00:54:00,
2013-01-26 18:59:00,14.8,12.6,30.63,SSE,166,2.0,12.0,91,0.00,,---,0.00,VWS V13.01,2013-01-27 00:59:00,
2013-01-26 19:04:00,14.9,12.8,30.62,SSE,167,4.0,7.0,91,0.00,,---,0.00,VWS V13.01,2013-01-27 01:04:00,
2013-01-26 19:09:00,15.0,12.9,30.62,SE,141,3.0,11.0,91,0.00,,---,0.00,VWS V13.01,2013-01-27 01:09:00,
2013-01-26 19:15:00,15.1,12.9,30.62,SE,130,5.0,11.0,91,0.00,,---,0.00,VWS V13.01,2013-01-27 01:15:00,
2013-01-26 19:20:00,15.2,13.1,30.63,South,170,3.0,10.0,91,0.00,,---,0.00,VWS V13.01,2013-01-27 01:20:00,
2013-01-26 19:25:00,15.3,13.1,30.63,SSW,198,3.0,13.0,91,0.00,,---,0.00,VWS V13.01,2013-01-27 01:25:00,
2013-01-26 19:30:00,15.4,13.2,30.63,SSE,157,6.0,13.0,91,0.00,,---,0.00,VWS V13.01,2013-01-27 01:30:00,
2013-01-26 19:36:00,15.5,13.4,30.62,South,175,4.0,10.0,91,0.00,,---,0.00,VWS V13.01,2013-01-27 01:36:00,
2013-01-26 19:41:00,15.5,13.4,30.62,South,170,2.0,12.0,91,0.00,,---,0.00,VWS V13.01,2013-01-27 01:41:00,
2013-01-26 19:46:00,15.5,13.1,30.61,SE,146,1.0,12.0,90,0.00,,---,0.00,VWS V13.01,2013-01-27 01:46:00,
2013-01-26 19:51:00,15.6,13.2,30.61,SSE,163,4.0,14.0,90,0.00,,---,0.00,VWS V13.01,2013-01-27 01:51:00,
2013-01-26 19:57:00,15.6,13.2,30.61,SSE,159,4.0,14.0,90,0.00,,---,0.00,VWS V13.01,2013-01-27 01:57:00,
2013-01-26 20:02:00,15.7,13.3,30.59,SSE,156,4.0,16.0,90,0.00,,---,0.00,VWS V13.01,2013-01-27 02:02:00,
2013-01-26 20:07:00,15.7,13.3,30.59,SSE,151,8.0,11.0,90,0.00,,---,0.00,VWS V13.01,2013-01-27 02:07:00,
2013-01-26 20:12:00,15.7,13.3,30.59,SSE,154,6.0,11.0,90,0.00,,---,0.00,VWS V13.01,2013-01-27 02:12:00,
2013-01-26 20:17:00,15.8,13.4,30.56,South,173,5.0,5.0,90,0.00,,---,0.00,VWS V13.01,2013-01-27 02:17:00,
2013-01-26 20:23:00,15.8,13.4,30.56,ESE,115,1.0,11.0,90,0.00,,---,0.00,VWS V13.01,2013-01-27 02:23:00,
2013-01-26 20:28:00,15.9,13.5,30.56,SSW,201,4.0,11.0,90,0.00,,---,0.00,VWS V13.01,2013-01-27 02:28:00,
2013-01-26 20:33:00,15.9,13.5,30.56,SSE,152,6.0,10.0,90,0.00,,---,0.00,VWS V13.01,2013-01-27 02:33:00,
2013-01-26 20:38:00,15.9,13.5,30.56,South,184,1.0,10.0,90,0.00,,---,0.00,VWS V13.01,2013-01-27 02:38:00,
2013-01-26 20:44:00,15.9,13.5,30.56,South,169,6.0,10.0,90,0.00,,---,0.00,VWS V13.01,2013-01-27 02:44:00,
2013-01-26 20:49:00,16.1,13.7,30.56,South,180,3.0,6.0,90,0.00,,---,0.00,VWS V13.01,2013-01-27 02:49:00,
2013-01-26 20:54:00,16.1,13.7,30.56,South,187,2.0,12.0,90,0.00,,---,0.00,VWS V13.01,2013-01-27 02:54:00,
2013-01-26 20:59:00,16.1,13.7,30.56,South,169,3.0,12.0,90,0.00,,---,0.00,VWS V13.01,2013-01-27 02:59:00,
2013-01-26 21:17:00,16.3,13.9,30.41,SSE,150,12.0,18.0,90,0.00,,---,0.00,VWS V13.01,2013-01-27 03:17:00,
2013-01-26 21:32:00,16.2,13.5,30.39,SSE,153,2.0,15.0,89,0.00,,---,0.00,VWS V13.01,2013-01-27 03:32:00,
2013-01-26 21:47:00,16.3,13.9,30.40,South,169,3.0,12.0,90,0.00,,---,0.00,VWS V13.01,2013-01-27 03:47:00,
2013-01-26 22:00:00,16.5,14.1,30.40,South,190,1.0,14.0,90,0.00,,---,0.00,VWS V13.01,2013-01-27 04:00:00,
2013-01-26 22:05:00,16.6,14.2,30.39,South,173,4.0,12.0,90,0.00,,---,0.00,VWS V13.01,2013-01-27 04:05:00,
2013-01-26 22:11:00,16.7,14.3,30.39,SSE,167,6.0,12.0,90,0.00,,---,0.00,VWS V13.01,2013-01-27 04:11:00,
2013-01-26 22:16:00,16.8,14.4,30.35,South,190,1.0,12.0,90,0.00,,---,0.00,VWS V13.01,2013-01-27 04:16:00,
2013-01-26 22:21:00,16.9,14.5,30.35,South,173,1.0,14.0,90,0.00,,---,0.00,VWS V13.01,2013-01-27 04:21:00,
2013-01-26 22:26:00,17.0,14.6,30.35,SE,142,3.0,14.0,90,0.00,,---,0.00,VWS V13.01,2013-01-27 04:26:00,
2013-01-26 22:32:00,17.1,14.7,30.34,South,176,3.0,14.0,90,0.00,,---,0.00,VWS V13.01,2013-01-27 04:32:00,
2013-01-26 22:37:00,17.1,14.7,30.34,SSE,167,2.0,13.0,90,0.00,,---,0.00,VWS V13.01,2013-01-27 04:37:00,
2013-01-26 22:42:00,17.2,14.8,30.34,SSE,168,3.0,13.0,90,0.00,,---,0.00,VWS V13.01,2013-01-27 04:42:00,
2013-01-26 22:47:00,17.2,14.8,30.34,South,190,3.0,10.0,90,0.00,,---,0.00,VWS V13.01,2013-01-27 04:47:00,
2013-01-26 22:53:00,17.3,14.9,30.34,South,186,4.0,14.0,90,0.00,,---,0.00,VWS V13.01,2013-01-27 04:53:00,
2013-01-26 22:58:00,17.3,14.9,30.34,SSW,198,5.0,14.0,90,0.00,,---,0.00,VWS V13.01,2013-01-27 04:58:00,
2013-01-26 23:01:00,17.4,15.0,30.33,SSW,196,6.0,14.0,90,0.00,,---,0.00,VWS V13.01,2013-01-27 05:01:00,
2013-01-26 23:02:00,17.4,15.0,30.33,SE,139,3.0,14.0,90,0.00,,---,0.00,VWS V13.01,2013-01-27 05:02:00,
2013-01-26 23:03:00,17.4,15.0,30.33,SSE,168,2.0,13.0,90,0.00,,---,0.00,VWS V13.01,2013-01-27 05:03:00,
2013-01-26 23:08:00,17.5,15.1,30.33,South,173,15.0,16.0,90,0.00,,---,0.00,VWS V13.01,2013-01-27 05:08:00,
2013-01-26 23:14:00,17.6,15.2,30.33,SSW,192,3.0,16.0,90,0.00,,---,0.00,VWS V13.01,2013-01-27 05:14:00,
2013-01-26 23:19:00,17.7,15.3,30.33,South,182,4.0,11.0,90,0.00,,---,0.00,VWS V13.01,2013-01-27 05:19:00,
2013-01-26 23:24:00,17.7,15.0,30.33,SSE,164,2.0,18.0,89,0.00,,---,0.00,VWS V13.01,2013-01-27 05:24:00,
2013-01-26 23:29:00,17.7,15.0,30.33,South,188,4.0,18.0,89,0.00,,---,0.00,VWS V13.01,2013-01-27 05:29:00,
2013-01-26 23:34:00,17.6,14.9,30.32,SSW,203,7.0,21.0,89,0.00,,---,0.00,VWS V13.01,2013-01-27 05:34:00,
2013-01-26 23:40:00,17.5,14.6,30.32,South,174,7.0,21.0,88,0.00,,---,0.00,VWS V13.01,2013-01-27 05:40:00,
2013-01-26 23:45:00,17.5,14.6,30.32,SSW,209,9.0,21.0,88,0.00,,---,0.00,VWS V13.01,2013-01-27 05:45:00,
2013-01-26 23:50:00,17.4,14.5,30.33,SW,234,4.0,17.0,88,0.00,,---,0.00,VWS V13.01,2013-01-27 05:50:00,
2013-01-26 23:55:00,17.4,14.5,30.33,SW,215,5.0,17.0,88,0.00,,---,0.00,VWS V13.01,2013-01-27 05:55:00,